createdAt,value
2018-10-03T00:02:25.430Z,12.60
2018-10-03T00:04:54.040Z,11.07
2018-10-03T00:07:22.744Z,12.20
2018-10-03T00:09:51.227Z,12.37
2018-10-03T00:12:19.626Z,13.63
2018-10-03T00:14:48.008Z,12.20
2018-10-03T00:17:16.406Z,14.20
2018-10-03T00:19:44.804Z,10.07
2018-10-03T00:22:13.190Z,15.17
2018-10-03T00:24:41.811Z,14.83
2018-10-03T00:27:10.307Z,11.50
2018-10-03T00:29:38.711Z,15.77
2018-10-03T00:32:07.156Z,9.93
2018-10-03T00:34:35.552Z,10.53
2018-10-03T00:37:04.166Z,16.07
2018-10-03T00:39:32.864Z,12.33
2018-10-03T00:42:01.343Z,12.17
2018-10-03T00:44:29.751Z,15.27
2018-10-03T00:46:58.162Z,15.97
2018-10-03T00:49:26.555Z,8.07
2018-10-03T00:51:54.954Z,14.90
2018-10-03T00:54:23.368Z,18.57
2018-10-03T00:56:51.760Z,15.73
2018-10-03T00:59:20.138Z,18.23
2018-10-03T01:01:48.557Z,20.23
2018-10-03T01:04:16.943Z,14.33
2018-10-03T01:06:45.339Z,14.00
2018-10-03T01:09:13.756Z,16.17
2018-10-03T01:11:42.155Z,11.40
2018-10-03T01:14:10.540Z,15.80
2018-10-03T01:16:38.951Z,13.20
2018-10-03T01:19:07.347Z,16.27
2018-10-03T01:21:35.744Z,17.93
2018-10-03T01:24:04.364Z,22.23
2018-10-03T01:26:32.859Z,18.43
2018-10-03T01:29:01.234Z,18.83
2018-10-03T01:31:29.647Z,23.10
2018-10-03T01:33:58.043Z,14.57
2018-10-03T01:36:26.442Z,19.17
2018-10-03T01:38:54.860Z,19.47
2018-10-03T01:41:23.271Z,16.57
2018-10-03T01:43:51.663Z,16.47
2018-10-03T01:46:20.074Z,20.07
2018-10-03T01:48:48.707Z,18.13
2018-10-03T01:51:17.196Z,17.23
2018-10-03T01:53:45.627Z,17.13
2018-10-03T01:56:14.019Z,20.27
2018-10-03T01:58:42.619Z,17.23
2018-10-03T02:01:11.159Z,23.10
2018-10-03T02:03:39.759Z,20.77
2018-10-03T02:06:08.244Z,23.67
2018-10-03T02:08:36.639Z,30.50
2018-10-03T02:11:05.034Z,19.73
2018-10-03T02:13:33.663Z,20.40
2018-10-03T02:16:02.464Z,28.90
2018-10-03T02:18:30.952Z,24.27
2018-10-03T02:20:59.349Z,25.90
2018-10-03T02:23:27.748Z,20.73
2018-10-03T02:25:56.368Z,25.77
2018-10-03T02:28:24.849Z,23.07
2018-10-03T02:30:53.274Z,21.27
2018-10-03T02:33:21.674Z,29.47
2018-10-03T02:35:50.276Z,17.67
2018-10-03T02:38:18.768Z,16.73
2018-10-03T02:40:47.156Z,21.97
2018-10-03T02:43:15.532Z,22.07
2018-10-03T02:45:44.162Z,18.47
2018-10-03T02:48:12.855Z,30.27
2018-10-03T02:50:41.355Z,26.60
2018-10-03T02:53:09.780Z,15.50
2018-10-03T02:55:38.200Z,23.40
2018-10-03T02:58:06.583Z,19.67
2018-10-03T03:00:34.980Z,23.83
2018-10-03T03:03:03.368Z,22.03
2018-10-03T03:05:31.769Z,19.07
2018-10-03T03:08:00.383Z,18.77
2018-10-03T03:10:28.851Z,22.83
2018-10-03T03:12:57.255Z,17.67
2018-10-03T03:15:25.672Z,18.37
2018-10-03T03:17:54.063Z,16.17
2018-10-03T03:20:22.472Z,21.93
2018-10-03T03:22:50.874Z,14.37
2018-10-03T03:25:19.275Z,15.57
2018-10-03T03:27:47.659Z,16.43
2018-10-03T03:30:16.053Z,17.27
2018-10-03T03:32:44.676Z,20.47
2018-10-03T03:35:13.163Z,20.80
2018-10-03T03:37:41.558Z,20.20
2018-10-03T03:40:09.945Z,16.70
2018-10-03T03:42:38.340Z,18.37
2018-10-03T03:45:07.019Z,23.87
2018-10-03T03:47:35.701Z,25.03
2018-10-03T03:50:04.191Z,17.80
2018-10-03T03:52:32.595Z,24.50
2018-10-03T03:55:00.988Z,23.73
2018-10-03T03:57:29.608Z,24.27
2018-10-03T03:59:58.311Z,16.67
2018-10-03T04:02:26.797Z,20.17
2018-10-03T04:04:55.184Z,19.03
2018-10-03T04:07:23.572Z,14.07
2018-10-03T04:09:52.186Z,17.60
2018-10-03T04:12:20.675Z,18.63
2018-10-03T04:14:49.083Z,23.47
2018-10-03T04:17:17.467Z,15.80
2018-10-03T04:19:45.855Z,20.73
2018-10-03T04:22:14.256Z,13.87
2018-10-03T04:24:42.632Z,16.83
2018-10-03T04:27:11.012Z,22.73
2018-10-03T04:29:39.448Z,16.97
2018-10-03T04:32:07.878Z,16.20
2018-10-03T04:34:36.267Z,18.10
2018-10-03T04:37:04.683Z,13.30
2018-10-03T04:39:33.075Z,12.17
2018-10-03T04:42:01.530Z,16.03
2018-10-03T04:44:29.867Z,15.43
2018-10-03T04:46:58.278Z,13.07
2018-10-03T04:49:26.690Z,18.17
2018-10-03T04:51:55.107Z,16.33
2018-10-03T04:54:23.500Z,18.93
2018-10-03T04:56:51.910Z,18.83
2018-10-03T04:59:20.330Z,12.03
2018-10-03T05:01:48.737Z,22.00
2018-10-03T05:04:17.139Z,11.73
2018-10-03T05:06:45.544Z,18.90
2018-10-03T05:09:13.942Z,15.27
2018-10-03T05:11:42.373Z,12.60
2018-10-03T05:14:10.816Z,11.83
2018-10-03T05:16:39.195Z,13.63
2018-10-03T05:19:07.597Z,16.03
2018-10-03T05:21:36.036Z,18.27
2018-10-03T05:24:04.659Z,13.77
2018-10-03T05:26:33.146Z,12.10
2018-10-03T05:29:01.548Z,12.50
2018-10-03T05:31:29.948Z,9.37
2018-10-03T05:33:58.600Z,12.07
2018-10-03T05:36:27.118Z,16.93
2018-10-03T05:38:55.829Z,12.57
2018-10-03T05:41:24.323Z,11.00
2018-10-03T05:43:52.748Z,16.70
2018-10-03T05:46:21.176Z,10.47
2018-10-03T05:48:49.783Z,13.30
2018-10-03T05:51:18.279Z,12.57
2018-10-03T05:53:46.854Z,12.37
2018-10-03T05:56:15.257Z,9.97
2018-10-03T05:58:43.661Z,13.77
2018-10-03T06:01:12.376Z,13.80
2018-10-03T06:03:41.168Z,10.63
2018-10-03T06:06:10.517Z,10.13
2018-10-03T06:08:39.566Z,10.50
2018-10-03T06:11:08.062Z,8.53
2018-10-03T06:13:36.478Z,15.00
2018-10-03T06:16:04.990Z,15.80
2018-10-03T06:18:33.394Z,10.43
2018-10-03T06:21:01.788Z,6.70
2018-10-03T06:23:30.188Z,10.97
2018-10-03T06:25:58.627Z,13.67
2018-10-03T06:28:27.031Z,7.90
2018-10-03T06:30:55.623Z,11.80
2018-10-03T06:33:23.997Z,9.13
2018-10-03T06:35:52.445Z,14.43
2018-10-03T06:38:21.097Z,16.70
2018-10-03T06:40:49.821Z,15.70
2018-10-03T06:43:18.324Z,9.50
2018-10-03T06:45:46.779Z,8.40
2018-10-03T06:48:15.206Z,10.17
2018-10-03T06:50:43.616Z,11.40
2018-10-03T06:53:12.091Z,10.90
2018-10-03T06:55:40.475Z,13.07
2018-10-03T06:58:08.883Z,9.30
2018-10-03T07:00:37.271Z,11.40
2018-10-03T07:03:05.694Z,8.80
2018-10-03T07:05:34.087Z,18.13
2018-10-03T07:08:02.656Z,14.37
2018-10-03T07:10:31.040Z,8.67
2018-10-03T07:12:59.457Z,9.67
2018-10-03T07:15:27.844Z,14.63
2018-10-03T07:17:56.487Z,12.90
2018-10-03T07:20:24.996Z,11.83
2018-10-03T07:22:53.433Z,12.43
2018-10-03T07:25:21.916Z,10.33
2018-10-03T07:27:50.506Z,11.80
2018-10-03T07:30:19.141Z,13.00
2018-10-03T07:32:47.659Z,11.40
2018-10-03T07:35:16.197Z,13.00
2018-10-03T07:37:44.599Z,11.63
2018-10-03T07:40:12.999Z,11.73
2018-10-03T07:42:41.434Z,13.03
2018-10-03T07:45:10.020Z,13.13
2018-10-03T07:47:38.394Z,9.20
2018-10-03T07:50:07.031Z,12.53
2018-10-03T07:52:35.914Z,12.30
2018-10-03T07:55:04.476Z,14.37
2018-10-03T07:57:32.910Z,10.10
2018-10-03T08:00:01.300Z,11.07
2018-10-03T08:02:29.695Z,7.57
2018-10-03T08:04:58.113Z,10.00
2018-10-03T08:07:26.851Z,10.90
2018-10-03T08:09:55.390Z,9.50
2018-10-03T08:12:23.763Z,10.43
2018-10-03T08:14:52.230Z,6.87
2018-10-03T08:17:20.673Z,13.53
2018-10-03T08:19:49.055Z,8.70
2018-10-03T08:22:17.498Z,11.53
2018-10-03T08:24:46.200Z,8.23
2018-10-03T08:27:14.987Z,8.73
2018-10-03T08:29:43.576Z,12.67
2018-10-03T08:32:12.239Z,8.00
2018-10-03T08:34:41.242Z,4.73
2018-10-03T08:37:09.707Z,5.43
2018-10-03T08:39:38.128Z,6.50
2018-10-03T08:42:06.756Z,6.43
2018-10-03T08:44:35.139Z,7.93
2018-10-03T08:47:03.522Z,4.83
2018-10-03T08:49:32.221Z,4.90
2018-10-03T08:52:01.061Z,7.77
2018-10-03T08:54:29.516Z,7.23
2018-10-03T08:56:58.206Z,8.03
2018-10-03T08:59:27.064Z,5.47
2018-10-03T09:01:55.607Z,8.90
2018-10-03T09:04:24.279Z,8.73
2018-10-03T09:06:53.106Z,7.67
2018-10-03T09:09:21.597Z,11.20
2018-10-03T09:11:50.290Z,6.90
2018-10-03T09:14:19.148Z,6.37
2018-10-03T09:16:47.786Z,7.70
2018-10-03T09:19:16.256Z,7.27
2018-10-03T09:21:44.749Z,6.40
2018-10-03T09:24:13.812Z,6.13
2018-10-03T09:26:42.371Z,4.03
2018-10-03T09:29:11.013Z,4.23
2018-10-03T09:31:39.539Z,7.83
2018-10-03T09:34:08.330Z,5.37
2018-10-03T09:36:36.971Z,9.90
2018-10-03T09:39:07.124Z,5.83
2018-10-03T09:41:35.787Z,6.50
2018-10-03T09:44:04.713Z,9.13
2018-10-03T09:46:33.351Z,6.63
2018-10-03T09:49:02.477Z,8.20
2018-10-03T09:51:32.080Z,5.93
2018-10-03T09:54:00.921Z,8.63
2018-10-03T09:56:29.583Z,6.40
2018-10-03T09:58:58.769Z,5.70
2018-10-03T10:01:29.908Z,10.67
2018-10-03T10:04:01.671Z,8.80
2018-10-03T10:06:32.028Z,7.83
2018-10-03T10:09:00.844Z,6.67
2018-10-03T10:11:29.407Z,8.10
2018-10-03T10:13:57.939Z,10.73
2018-10-03T10:16:26.416Z,7.53
2018-10-03T10:18:54.829Z,9.03
2018-10-03T10:21:23.343Z,9.53
2018-10-03T10:23:51.948Z,8.97
2018-10-03T10:26:20.427Z,7.93
2018-10-03T10:28:49.112Z,10.57
2018-10-03T10:31:17.723Z,4.70
2018-10-03T10:33:46.411Z,6.17
2018-10-03T10:36:15.192Z,5.97
2018-10-03T10:38:43.700Z,5.47
2018-10-03T10:41:12.594Z,8.00
2018-10-03T10:43:41.183Z,9.13
2018-10-03T10:46:09.729Z,5.13
2018-10-03T10:48:38.408Z,7.27
2018-10-03T10:51:07.188Z,7.63
2018-10-03T10:53:36.177Z,8.67
2018-10-03T10:56:04.760Z,10.13
2018-10-03T10:58:33.244Z,12.03
2018-10-03T11:01:01.649Z,5.67
2018-10-03T11:03:30.315Z,10.00
2018-10-03T11:05:58.777Z,9.47
2018-10-03T11:08:27.603Z,7.83
2018-10-03T11:10:56.015Z,10.33
2018-10-03T11:13:24.650Z,7.70
2018-10-03T11:15:53.164Z,11.77
2018-10-03T11:18:21.551Z,4.93
2018-10-03T11:20:50.300Z,5.63
2018-10-03T11:23:18.794Z,9.07
2018-10-03T11:25:47.269Z,7.50
2018-10-03T11:28:15.906Z,7.07
2018-10-03T11:30:44.681Z,6.70
2018-10-03T11:33:13.383Z,6.63
2018-10-03T11:35:42.087Z,8.27
2018-10-03T11:38:10.811Z,5.13
2018-10-03T11:40:39.368Z,6.10
2018-10-03T11:43:07.750Z,7.33
2018-10-03T11:45:36.167Z,9.80
2018-10-03T11:48:04.736Z,6.40
2018-10-03T11:50:33.510Z,7.27
2018-10-03T11:53:02.199Z,6.07
2018-10-03T11:55:30.951Z,8.93
2018-10-03T11:57:59.525Z,6.97
2018-10-03T12:00:28.192Z,8.13
2018-10-03T12:02:56.926Z,4.90
2018-10-03T12:05:25.250Z,5.70
2018-10-03T12:07:53.667Z,6.33
2018-10-03T12:10:22.056Z,6.20
2018-10-03T12:12:50.711Z,9.07
2018-10-03T12:15:19.131Z,10.10
2018-10-03T12:17:47.511Z,6.90
2018-10-03T12:20:15.910Z,9.03
2018-10-03T12:22:44.320Z,5.03
2018-10-03T12:25:12.805Z,5.37
2018-10-03T12:27:41.355Z,7.07
2018-10-03T12:30:09.839Z,5.17
2018-10-03T12:32:38.238Z,5.53
2018-10-03T12:35:06.638Z,7.70
2018-10-03T12:37:35.245Z,5.20
2018-10-03T12:40:03.815Z,7.57
2018-10-03T12:42:32.664Z,4.47
2018-10-03T12:45:01.448Z,6.13
2018-10-03T12:47:30.079Z,6.10
2018-10-03T12:49:58.796Z,4.07
2018-10-03T12:52:27.759Z,6.73
2018-10-03T12:54:56.164Z,4.10
2018-10-03T12:57:24.612Z,7.07
2018-10-03T12:59:53.072Z,6.77
2018-10-03T13:02:21.461Z,7.87
2018-10-03T13:04:50.084Z,7.60
2018-10-03T13:07:18.766Z,4.67
2018-10-03T13:09:47.752Z,3.70
2018-10-03T13:12:16.604Z,6.03
2018-10-03T13:14:45.111Z,5.77
2018-10-03T13:17:14.551Z,7.03
2018-10-03T13:19:43.411Z,5.03
2018-10-03T13:22:11.951Z,9.70
2018-10-03T13:24:40.487Z,6.20
2018-10-03T13:27:08.900Z,8.27
2018-10-03T13:29:37.420Z,3.63
2018-10-03T13:32:05.860Z,5.20
2018-10-03T13:34:34.501Z,5.00
2018-10-03T13:37:03.749Z,9.97
2018-10-03T13:39:32.735Z,5.53
2018-10-03T13:42:01.920Z,4.27
2018-10-03T13:44:33.067Z,7.27
2018-10-03T13:47:01.543Z,4.33
2018-10-03T13:49:30.259Z,8.50
2018-10-03T13:51:58.843Z,4.07
2018-10-03T13:54:27.406Z,2.43
2018-10-03T13:56:55.967Z,5.83
2018-10-03T13:59:24.368Z,10.00
2018-10-03T14:01:52.882Z,6.10
2018-10-03T14:04:21.266Z,5.63
2018-10-03T14:06:49.650Z,5.53
2018-10-03T14:09:18.053Z,9.30
2018-10-03T14:11:47.282Z,5.13
2018-10-03T14:14:16.028Z,5.13
2018-10-03T14:19:27.818Z,4.70
2018-10-03T14:21:56.274Z,4.57
2018-10-03T14:24:24.953Z,7.30
2018-10-03T14:26:53.428Z,3.20
2018-10-03T14:29:21.822Z,4.27
2018-10-03T14:31:50.272Z,8.10
2018-10-03T14:34:18.761Z,3.70
2018-10-03T14:36:47.145Z,3.13
2018-10-03T14:39:15.756Z,6.27
2018-10-03T14:41:44.286Z,9.50
2018-10-03T14:44:12.709Z,4.93
2018-10-03T14:46:41.198Z,5.03
2018-10-03T14:49:09.679Z,4.80
2018-10-03T14:51:38.138Z,4.40
2018-10-03T14:54:06.520Z,8.43
2018-10-03T14:56:35.240Z,6.53
2018-10-03T14:59:03.727Z,8.23
2018-10-03T15:01:32.228Z,6.10
2018-10-03T15:04:00.624Z,5.83
2018-10-03T15:06:29.085Z,5.20
2018-10-03T15:08:57.480Z,5.90
2018-10-03T15:11:26.115Z,8.00
2018-10-03T15:13:54.860Z,8.77
2018-10-03T15:16:23.332Z,6.27
2018-10-03T15:18:51.838Z,4.87
2018-10-03T15:21:20.242Z,8.10
2018-10-03T15:23:48.862Z,4.93
2018-10-03T15:26:17.360Z,7.53
2018-10-03T15:28:45.895Z,6.67
2018-10-03T15:31:14.325Z,8.63
2018-10-03T15:33:43.159Z,6.90
2018-10-03T15:36:11.639Z,7.60
2018-10-03T15:38:40.415Z,10.53
2018-10-03T15:41:08.959Z,9.97
2018-10-03T15:43:37.372Z,8.47
2018-10-03T15:46:05.967Z,6.40
2018-10-03T15:48:34.380Z,5.73
2018-10-03T15:51:02.820Z,5.27
2018-10-03T15:53:31.395Z,7.13
2018-10-03T15:55:59.888Z,6.93
2018-10-03T15:58:28.354Z,13.53
2018-10-03T16:00:56.824Z,8.70
2018-10-03T16:03:25.871Z,7.83
2018-10-03T16:05:54.933Z,12.03
2018-10-03T16:08:25.042Z,8.30
2018-10-03T16:10:53.746Z,10.43
2018-10-03T16:13:22.651Z,8.87
2018-10-03T16:15:51.216Z,7.73
2018-10-03T16:18:19.695Z,8.23
2018-10-03T16:20:48.127Z,8.53
2018-10-03T16:23:17.059Z,7.50
2018-10-03T16:25:45.487Z,6.47
2018-10-03T16:28:14.833Z,5.57
2018-10-03T16:30:48.574Z,8.30
2018-10-03T16:33:17.703Z,5.60
2018-10-03T16:35:46.468Z,10.37
2018-10-03T16:38:15.228Z,11.37
2018-10-03T16:40:53.790Z,8.47
2018-10-03T16:43:22.223Z,10.33
2018-10-03T16:45:51.428Z,9.93
2018-10-03T16:48:20.097Z,8.13
2018-10-03T16:50:48.503Z,11.40
2018-10-03T16:53:18.025Z,6.17
2018-10-03T16:55:46.634Z,8.17
2018-10-03T16:58:15.294Z,12.10
2018-10-03T17:00:44.075Z,15.83
2018-10-03T17:03:12.960Z,6.60
2018-10-03T17:05:42.451Z,7.97
2018-10-03T17:08:10.883Z,12.53
2018-10-03T17:10:39.492Z,8.90
2018-10-03T17:13:08.023Z,7.70
2018-10-03T17:15:36.620Z,8.13
2018-10-03T17:18:05.396Z,10.03
2018-10-03T17:20:33.903Z,7.70
2018-10-03T17:23:02.328Z,7.97
2018-10-03T17:25:30.732Z,12.77
2018-10-03T17:27:59.445Z,8.10
2018-10-03T17:30:27.924Z,10.80
2018-10-03T17:32:56.325Z,12.27
2018-10-03T17:35:24.822Z,12.83
2018-10-03T17:37:53.213Z,3.50
2018-10-03T17:40:22.359Z,6.47
2018-10-03T17:42:50.768Z,9.87
2018-10-03T17:45:19.415Z,7.77
2018-10-03T17:47:48.933Z,11.47
2018-10-03T17:50:17.886Z,6.67
2018-10-03T17:52:46.250Z,7.13
2018-10-03T17:55:14.679Z,13.83
2018-10-03T17:57:44.201Z,10.37
2018-10-03T18:00:12.802Z,9.83
2018-10-03T18:02:41.340Z,11.40
2018-10-03T18:05:12.400Z,9.67
2018-10-03T18:07:42.725Z,10.07
2018-10-03T18:10:11.216Z,10.03
2018-10-03T18:12:39.652Z,10.77
2018-10-03T18:15:08.080Z,11.20
2018-10-03T18:17:36.591Z,8.10
2018-10-03T18:20:05.951Z,7.53
2018-10-03T18:22:34.761Z,7.43
2018-10-03T18:25:03.700Z,11.50
2018-10-03T18:27:32.170Z,10.50
2018-10-03T18:30:01.191Z,9.40
2018-10-03T18:32:29.868Z,7.83
2018-10-03T18:34:59.139Z,10.57
2018-10-03T18:37:27.587Z,11.47
2018-10-03T18:39:56.066Z,11.20
2018-10-03T18:42:24.821Z,8.63
2018-10-03T18:44:53.840Z,6.47
2018-10-03T18:47:22.658Z,9.97
2018-10-03T18:49:51.409Z,10.53
2018-10-03T18:52:20.015Z,4.60
2018-10-03T18:54:48.726Z,6.50
2018-10-03T18:57:17.541Z,6.20
2018-10-03T18:59:45.999Z,10.17
2018-10-03T19:02:14.411Z,8.80
2018-10-03T19:04:42.841Z,10.37
2018-10-03T19:07:12.471Z,13.37
2018-10-03T19:09:41.128Z,12.30
2018-10-03T19:12:09.760Z,12.37
2018-10-03T19:14:38.048Z,9.97
2018-10-03T19:17:06.456Z,11.60
2018-10-03T19:19:34.855Z,7.77
2018-10-03T19:22:03.254Z,13.17
2018-10-03T19:24:31.654Z,9.37
2018-10-03T19:27:00.086Z,10.83
2018-10-03T19:29:28.487Z,11.13
2018-10-03T19:31:56.879Z,6.67
2018-10-03T19:34:25.271Z,10.10
2018-10-03T19:36:53.675Z,6.27
2018-10-03T19:39:22.211Z,9.63
2018-10-03T19:41:50.579Z,11.03
2018-10-03T19:44:19.000Z,10.83
2018-10-03T19:46:47.388Z,12.77
2018-10-03T19:49:15.807Z,11.83
2018-10-03T19:51:45.156Z,7.40
2018-10-03T19:54:13.619Z,11.43
2018-10-03T19:56:42.326Z,8.80
2018-10-03T19:59:10.756Z,9.27
2018-10-03T20:01:39.180Z,12.43
2018-10-03T20:04:07.676Z,9.07
2018-10-03T20:06:36.036Z,6.80
2018-10-03T20:09:05.575Z,10.63
2018-10-03T20:11:34.276Z,9.63
2018-10-03T20:14:02.670Z,6.37
2018-10-03T20:16:31.323Z,10.77
2018-10-03T20:18:59.814Z,9.57
2018-10-03T20:21:28.335Z,4.27
2018-10-03T20:23:56.631Z,7.00
2018-10-03T20:26:25.040Z,7.17
2018-10-03T20:28:53.415Z,8.77
2018-10-03T20:31:22.139Z,8.47
2018-10-03T20:33:50.519Z,5.77
2018-10-03T20:36:19.127Z,10.30
2018-10-03T20:38:47.603Z,10.30
2018-10-03T20:41:16.033Z,8.97
2018-10-03T20:43:44.423Z,9.33
2018-10-03T20:46:12.816Z,13.90
2018-10-03T20:48:41.419Z,9.30
2018-10-03T20:51:09.896Z,6.97
2018-10-03T20:53:38.283Z,11.40
2018-10-03T20:56:06.872Z,8.53
2018-10-03T20:58:35.539Z,13.30
2018-10-03T21:01:04.240Z,7.60
2018-10-03T21:03:32.971Z,10.33
2018-10-03T21:06:01.455Z,10.30
2018-10-03T21:08:29.962Z,11.73
2018-10-03T21:10:58.325Z,12.47
2018-10-03T21:13:26.932Z,15.67
2018-10-03T21:15:55.407Z,10.87
2018-10-03T21:18:23.799Z,6.90
2018-10-03T21:20:52.228Z,7.73
2018-10-03T21:23:20.611Z,9.03
2018-10-03T21:25:49.234Z,11.60
2018-10-03T21:28:17.702Z,5.00
2018-10-03T21:30:46.168Z,6.77
2018-10-03T21:33:14.821Z,12.20
2018-10-03T21:35:43.311Z,9.73
2018-10-03T21:38:11.694Z,9.17
2018-10-03T21:40:40.379Z,8.03
2018-10-03T21:43:08.863Z,12.73
2018-10-03T21:45:37.271Z,15.20
2018-10-03T21:48:05.679Z,8.53
2018-10-03T21:50:34.063Z,10.03
2018-10-03T21:53:02.459Z,10.60
2018-10-03T21:55:30.854Z,10.47
2018-10-03T21:57:59.260Z,8.43
2018-10-03T22:00:36.616Z,9.17
2018-10-03T22:03:05.617Z,9.43
2018-10-03T22:05:34.115Z,12.00
2018-10-03T22:08:02.786Z,8.93
2018-10-03T22:10:31.318Z,9.77
2018-10-03T22:12:59.740Z,7.90
2018-10-03T22:15:28.159Z,10.40
2018-10-03T22:17:56.590Z,7.37
2018-10-03T22:20:25.240Z,9.33
2018-10-03T22:22:53.809Z,9.23
2018-10-03T22:25:22.226Z,9.20
2018-10-03T22:27:50.598Z,10.77
2018-10-03T22:30:19.063Z,10.87
2018-10-03T22:32:59.833Z,6.73
2018-10-03T22:35:28.718Z,8.40
2018-10-03T22:37:57.841Z,7.40
2018-10-03T22:40:26.927Z,8.10
2018-10-03T22:42:55.796Z,9.97
2018-10-03T22:45:24.599Z,9.37
2018-10-03T22:47:53.417Z,8.00
2018-10-03T22:50:21.816Z,5.10
2018-10-03T22:52:50.243Z,11.30
2018-10-03T22:55:18.912Z,8.23
2018-10-03T22:57:47.568Z,7.53
2018-10-03T23:00:16.085Z,9.43
2018-10-03T23:02:44.521Z,11.80
2018-10-03T23:05:13.157Z,9.40
2018-10-03T23:07:43.451Z,7.63
2018-10-03T23:10:11.865Z,9.13
2018-10-03T23:12:40.280Z,10.53
2018-10-03T23:15:08.678Z,7.93
2018-10-03T23:17:37.284Z,8.00
2018-10-03T23:20:05.798Z,5.43
2018-10-03T23:22:34.181Z,5.27
2018-10-03T23:25:02.571Z,5.30
2018-10-03T23:27:31.192Z,8.17
2018-10-03T23:29:59.670Z,9.93
2018-10-03T23:32:28.049Z,8.50
2018-10-03T23:34:56.460Z,13.00
2018-10-03T23:37:25.076Z,8.93
2018-10-03T23:39:53.559Z,5.03
2018-10-03T23:42:21.961Z,7.83
2018-10-03T23:44:50.330Z,11.80
2018-10-03T23:47:18.940Z,11.00
2018-10-03T23:49:47.648Z,8.53
2018-10-03T23:52:16.119Z,8.03
2018-10-03T23:54:44.518Z,8.00
2018-10-03T23:57:13.141Z,8.47
2018-10-03T23:59:41.762Z,10.57
